createdAt,value
2019-03-30T00:51:45.958Z,7.80
2019-03-30T03:11:35.549Z,6.47
2019-03-30T06:23:23.067Z,6.60
2019-03-30T06:28:45.521Z,7.50
2019-03-30T06:34:07.865Z,7.12
2019-03-30T06:52:34.220Z,7.83
2019-03-30T07:24:41.847Z,6.60
2019-03-30T07:56:32.158Z,8.40
2019-03-30T08:01:54.423Z,6.83
2019-03-30T08:14:37.383Z,8.05
2019-03-30T08:21:01.303Z,8.40
2019-03-30T08:45:39.940Z,8.63
2019-03-30T08:51:35.861Z,7.97
2019-03-30T08:57:17.549Z,9.65
2019-03-30T09:15:38.819Z,8.80
2019-03-30T09:21:00.803Z,8.23
2019-03-30T09:26:25.270Z,7.17
2019-03-30T09:31:47.266Z,9.93
2019-03-30T09:37:10.298Z,11.73
2019-03-30T09:42:41.101Z,11.43
2019-03-30T09:48:11.494Z,8.53
2019-03-30T09:53:35.623Z,10.78
2019-03-30T09:58:58.830Z,10.27
2019-03-30T10:04:23.685Z,9.45
2019-03-30T10:09:47.381Z,10.10
2019-03-30T10:15:10.282Z,7.62
2019-03-30T10:20:33.735Z,10.18
2019-03-30T10:26:21.841Z,9.77
2019-03-30T11:18:11.956Z,10.78
2019-03-30T11:43:29.211Z,14.40
2019-03-30T11:48:52.777Z,13.48
2019-03-30T11:54:19.518Z,13.93
2019-03-30T11:59:43.166Z,14.93
2019-03-30T12:05:08.377Z,14.47
2019-03-30T12:10:32.613Z,15.75
2019-03-30T12:15:56.463Z,12.98
2019-03-30T12:21:24.599Z,15.23
2019-03-30T12:26:57.245Z,10.20
2019-03-30T12:32:23.735Z,16.02
2019-03-30T12:37:48.021Z,14.73
2019-03-30T12:43:17.700Z,14.95
2019-03-30T12:48:42.636Z,16.82
2019-03-30T12:54:06.271Z,14.47
2019-03-30T12:59:29.250Z,19.32
2019-03-30T13:04:51.912Z,18.55
2019-03-30T13:10:24.636Z,19.73
2019-03-30T13:15:47.280Z,19.37
2019-03-30T13:21:13.505Z,17.77
2019-03-30T13:26:39.152Z,19.25
2019-03-30T13:32:07.557Z,20.48
2019-03-30T13:37:29.806Z,21.12
2019-03-30T13:42:53.805Z,18.80
2019-03-30T13:48:17.105Z,17.07
2019-03-30T13:53:52.134Z,18.57
2019-03-30T13:59:14.817Z,17.07
2019-03-30T14:05:17.048Z,13.93
2019-03-30T14:10:46.118Z,21.07
2019-03-30T14:16:09.581Z,18.52
2019-03-30T14:22:37.434Z,18.50
2019-03-30T14:39:56.481Z,17.65
2019-03-30T14:45:20.416Z,15.40
2019-03-30T14:50:42.570Z,13.32
2019-03-30T15:02:41.659Z,17.57
2019-03-30T16:01:25.969Z,21.23
2019-03-30T17:46:43.085Z,14.40
2019-03-30T17:59:54.044Z,16.90
2019-03-30T19:05:16.942Z,12.77
